createdAt,value
2023-05-25T00:06:18.938Z,11.42
2023-05-25T00:16:48.808Z,10.15
2023-05-25T00:27:56.741Z,9.41
2023-05-25T00:38:30.549Z,8.95
2023-05-25T00:48:59.607Z,8.59
2023-05-25T00:59:36.399Z,10.63
2023-05-25T01:10:50.306Z,13.56
2023-05-25T01:21:53.629Z,14.60
2023-05-25T01:32:32.988Z,13.05
2023-05-25T01:43:00.745Z,10.40
2023-05-25T01:53:40.035Z,9.15
2023-05-25T02:04:26.743Z,8.40
2023-05-25T02:14:58.192Z,7.94
2023-05-25T02:25:30.610Z,7.52
2023-05-25T02:35:58.422Z,9.68
2023-05-25T02:47:05.257Z,12.45
2023-05-25T02:58:01.448Z,13.24
2023-05-25T03:09:24.211Z,13.86
2023-05-25T03:20:11.059Z,12.34
2023-05-25T03:30:49.326Z,9.85
2023-05-25T03:41:18.288Z,8.83
2023-05-25T03:52:04.264Z,8.53
2023-05-25T04:02:32.006Z,8.58
2023-05-25T04:13:06.730Z,10.93
2023-05-25T04:23:35.715Z,13.89
2023-05-25T04:34:22.097Z,14.45
2023-05-25T04:45:17.817Z,12.85
2023-05-25T04:56:42.388Z,12.77
2023-05-25T05:07:48.230Z,14.57
2023-05-25T05:18:29.940Z,13.54
2023-05-25T05:39:58.656Z,14.73
2023-05-25T05:50:50.721Z,12.95
2023-05-25T06:01:40.163Z,15.09
2023-05-25T06:12:37.982Z,15.11
2023-05-25T06:23:26.616Z,13.46
2023-05-25T06:34:04.414Z,15.09
2023-05-25T06:44:52.268Z,16.64
2023-05-25T06:55:30.932Z,14.88
2023-05-25T07:06:38.392Z,14.40
2023-05-25T07:18:12.921Z,16.86
2023-05-25T07:29:27.366Z,16.71
2023-05-25T07:40:30.085Z,15.54
2023-05-25T07:51:04.049Z,15.38
2023-05-25T08:01:50.585Z,15.53
2023-05-25T08:12:34.271Z,16.05
2023-05-25T08:23:30.612Z,16.41
2023-05-25T08:33:58.874Z,17.04
2023-05-25T08:44:42.509Z,17.37
2023-05-25T08:55:49.501Z,18.11
2023-05-25T09:19:18.016Z,18.78
2023-05-25T09:29:44.686Z,18.92
2023-05-25T09:40:35.322Z,19.56
2023-05-25T09:51:50.648Z,19.66
2023-05-25T10:02:39.699Z,20.03
2023-05-25T10:13:08.772Z,20.06
2023-05-25T10:23:49.978Z,20.04
2023-05-25T10:34:18.380Z,20.66
2023-05-25T10:44:44.407Z,20.54
2023-05-25T10:55:28.388Z,20.43
2023-05-25T11:06:10.748Z,20.53
2023-05-25T11:17:33.235Z,20.92
2023-05-25T11:28:19.087Z,21.32
2023-05-25T11:38:56.605Z,21.77
2023-05-25T11:49:52.620Z,21.81
2023-05-25T12:00:58.507Z,21.74
2023-05-25T12:11:34.833Z,22.28
2023-05-25T12:22:16.697Z,22.46
2023-05-25T12:33:04.062Z,21.89
2023-05-25T12:43:57.922Z,21.94
2023-05-25T12:54:45.817Z,22.15
2023-05-25T13:05:22.472Z,22.53
2023-05-25T13:15:47.724Z,22.82
2023-05-25T13:26:13.214Z,23.39
2023-05-25T13:36:44.670Z,23.72
2023-05-25T13:47:22.728Z,24.23
2023-05-25T13:57:46.812Z,24.12
2023-05-25T14:08:13.064Z,23.77
2023-05-25T14:18:37.897Z,23.88
2023-05-25T14:29:02.350Z,24.01
2023-05-25T14:39:27.134Z,24.62
2023-05-25T14:49:51.906Z,25.34
2023-05-25T15:00:16.370Z,25.06
2023-05-25T15:10:42.088Z,24.91
2023-05-25T15:21:06.996Z,24.42
2023-05-25T15:31:31.759Z,23.95
2023-05-25T15:41:56.693Z,23.85
2023-05-25T15:52:21.410Z,23.15
2023-05-25T16:02:45.920Z,22.90
2023-05-25T16:13:10.950Z,23.18
2023-05-25T16:23:35.515Z,23.39
2023-05-25T16:34:00.036Z,23.12
2023-05-25T16:44:25.197Z,23.12
2023-05-25T16:54:49.789Z,23.13
2023-05-25T17:05:14.019Z,23.21
2023-05-25T17:15:38.455Z,23.76
2023-05-25T17:26:03.950Z,23.77
2023-05-25T17:36:27.897Z,24.33
2023-05-25T17:46:53.601Z,24.55
2023-05-25T17:57:18.748Z,25.29
2023-05-25T18:07:42.861Z,26.18
2023-05-25T18:18:09.074Z,26.35
2023-05-25T18:28:34.053Z,25.43
2023-05-25T18:38:58.440Z,23.92
2023-05-25T18:49:24.366Z,22.42
2023-05-25T18:59:48.971Z,21.28
2023-05-25T19:10:13.075Z,20.56
2023-05-25T19:20:38.155Z,19.90
2023-05-25T19:31:03.384Z,19.19
2023-05-25T19:41:28.054Z,18.62
2023-05-25T19:51:52.968Z,18.28
2023-05-25T20:02:18.015Z,17.85
2023-05-25T20:12:42.363Z,17.50
2023-05-25T20:23:07.744Z,17.13
2023-05-25T20:33:32.805Z,16.63
2023-05-25T20:43:57.512Z,15.99
2023-05-25T20:54:22.808Z,15.47
2023-05-25T21:04:48.008Z,15.24
2023-05-25T21:15:12.189Z,14.98
2023-05-25T21:25:37.228Z,14.80
2023-05-25T21:36:03.236Z,14.59
2023-05-25T21:46:27.432Z,14.34
2023-05-25T21:56:52.508Z,14.19
2023-05-25T22:07:17.228Z,14.10
2023-05-25T22:17:41.110Z,13.98
2023-05-25T22:28:06.506Z,13.78
2023-05-25T22:38:31.200Z,13.60
2023-05-25T22:48:55.461Z,13.50
2023-05-25T22:59:20.211Z,15.31
2023-05-25T23:09:45.106Z,17.39
2023-05-25T23:20:09.628Z,18.19
2023-05-25T23:30:34.510Z,18.31
2023-05-25T23:40:59.133Z,17.07
2023-05-25T23:51:22.916Z,14.65
